Time,TemperatureF,DewpointF,PressureIn,WindDirection,WindDirectionDegrees,WindSpeedMPH,WindSpeedGustMPH,Humidity,HourlyPrecipIn,Conditions,Clouds,dailyrainin,SolarRadiationWatts/m^2,SoftwareType,DateUTC
2013-08-09 00:00:00,63.0,58.0,-100.00,NNE,22,0.0,-999.0,83,-99.99,,,-99.99,0.000000,,2013-08-09 04:00:00,
2013-08-09 00:43:00,63.0,58.0,-100.00,NNE,22,0.0,-999.0,83,-99.99,,,-99.99,0.000000,,2013-08-09 04:43:00,
2013-08-09 00:53:00,63.0,58.0,-100.00,NNE,22,0.0,-999.0,83,-99.99,,,-99.99,0.000000,,2013-08-09 04:53:00,
2013-08-09 01:00:00,63.0,58.0,-100.00,North,0,0.0,-999.0,86,-99.99,,,-99.99,0.000000,,2013-08-09 05:00:00,
2013-08-09 01:33:00,63.0,58.0,-100.00,North,0,0.0,-999.0,86,-99.99,,,-99.99,0.000000,,2013-08-09 05:33:00,
2013-08-09 01:43:00,63.0,58.0,-100.00,North,0,0.0,-999.0,86,-99.99,,,-99.99,0.000000,,2013-08-09 05:43:00,
2013-08-09 01:52:00,63.0,58.0,-100.00,North,0,0.0,-999.0,86,-99.99,,,-99.99,0.000000,,2013-08-09 05:52:00,
2013-08-09 02:00:00,62.0,59.0,-100.00,NNE,22,0.0,-999.0,89,-99.99,,,-99.99,0.000000,,2013-08-09 06:00:00,
2013-08-09 02:43:00,62.0,59.0,-100.00,NNE,22,0.0,-999.0,89,-99.99,,,-99.99,0.000000,,2013-08-09 06:43:00,
2013-08-09 02:52:00,62.0,59.0,-100.00,NNE,22,0.0,-999.0,89,-99.99,,,-99.99,0.000000,,2013-08-09 06:52:00,
2013-08-09 03:00:00,62.0,59.0,-100.00,NNE,22,0.0,-999.0,88,-99.99,,,-99.99,0.000000,,2013-08-09 07:00:00,
2013-08-09 03:33:00,62.0,59.0,-100.00,NNE,22,0.0,-999.0,88,-99.99,,,-99.99,0.000000,,2013-08-09 07:33:00,
2013-08-09 03:43:00,62.0,59.0,-100.00,NNE,22,0.0,-999.0,88,-99.99,,,-99.99,0.000000,,2013-08-09 07:43:00,
2013-08-09 03:53:00,62.0,59.0,-100.00,NNE,22,0.0,-999.0,88,-99.99,,,-99.99,0.000000,,2013-08-09 07:53:00,
2013-08-09 04:00:00,61.0,58.0,-100.00,North,0,0.0,-999.0,90,-99.99,,,-99.99,0.000000,,2013-08-09 08:00:00,
2013-08-09 04:43:00,61.0,58.0,-100.00,North,0,0.0,-999.0,90,-99.99,,,-99.99,0.000000,,2013-08-09 08:43:00,
2013-08-09 04:53:00,61.0,58.0,-100.00,North,0,0.0,-999.0,90,-99.99,,,-99.99,0.000000,,2013-08-09 08:53:00,
2013-08-09 05:00:00,59.0,57.0,-100.00,North,0,0.0,-999.0,92,-99.99,,,-99.99,0.000000,,2013-08-09 09:00:00,
2013-08-09 05:43:00,59.0,57.0,-100.00,North,0,0.0,-999.0,92,-99.99,,,-99.99,0.000000,,2013-08-09 09:43:00,
2013-08-09 05:52:00,59.0,57.0,-100.00,North,0,0.0,-999.0,92,-99.99,,,-99.99,0.000000,,2013-08-09 09:52:00,
2013-08-09 06:00:00,57.0,55.0,-100.00,North,0,0.0,-999.0,93,-99.99,,,-99.99,0.000000,,2013-08-09 10:00:00,
2013-08-09 06:43:00,57.0,55.0,-100.00,North,0,0.0,-999.0,93,-99.99,,,-99.99,0.000000,,2013-08-09 10:43:00,
2013-08-09 06:53:00,57.0,55.0,-100.00,North,0,0.0,-999.0,93,-99.99,,,-99.99,0.000000,,2013-08-09 10:53:00,
2013-08-09 07:00:00,56.0,54.0,-100.00,North,0,0.0,-999.0,94,-99.99,,,-99.99,2.320000,,2013-08-09 11:00:00,
2013-08-09 07:43:00,56.0,54.0,-100.00,North,0,0.0,-999.0,94,-99.99,,,-99.99,2.320000,,2013-08-09 11:43:00,
2013-08-09 07:53:00,56.0,54.0,-100.00,North,0,0.0,-999.0,94,-99.99,,,-99.99,2.320000,,2013-08-09 11:53:00,
2013-08-09 08:00:00,57.0,55.0,-100.00,North,0,0.0,-999.0,94,-99.99,,,-99.99,68.440002,,2013-08-09 12:00:00,
2013-08-09 08:43:00,57.0,55.0,-100.00,North,0,0.0,-999.0,94,-99.99,,,-99.99,68.440002,,2013-08-09 12:43:00,
2013-08-09 08:52:00,57.0,55.0,-100.00,North,0,0.0,-999.0,94,-99.99,,,-99.99,68.440002,,2013-08-09 12:52:00,
2013-08-09 09:00:00,66.0,62.0,-100.00,North,0,0.0,-999.0,86,-99.99,,,-99.99,234.320007,,2013-08-09 13:00:00,
2013-08-09 09:43:00,66.0,62.0,-100.00,North,0,0.0,-999.0,86,-99.99,,,-99.99,234.320007,,2013-08-09 13:43:00,
2013-08-09 09:52:00,66.0,62.0,-100.00,North,0,0.0,-999.0,86,-99.99,,,-99.99,234.320007,,2013-08-09 13:52:00,
2013-08-09 10:00:00,72.0,59.0,-100.00,NNW,337,1.0,-999.0,63,-99.99,,,-99.99,393.239990,,2013-08-09 14:00:00,
2013-08-09 10:33:00,72.0,59.0,-100.00,NNW,337,1.0,-999.0,63,-99.99,,,-99.99,393.239990,,2013-08-09 14:33:00,
2013-08-09 10:43:00,72.0,59.0,-100.00,NNW,337,1.0,-999.0,63,-99.99,,,-99.99,393.239990,,2013-08-09 14:43:00,
2013-08-09 10:53:00,72.0,59.0,-100.00,NNW,337,1.0,-999.0,63,-99.99,,,-99.99,393.239990,,2013-08-09 14:53:00,
2013-08-09 11:00:00,75.0,58.0,-100.00,NNW,337,3.0,-999.0,55,-99.99,,,-99.99,540.559998,,2013-08-09 15:00:00,
2013-08-09 11:33:00,75.0,58.0,-100.00,NNW,337,3.0,-999.0,55,-99.99,,,-99.99,540.559998,,2013-08-09 15:33:00,
2013-08-09 11:44:00,75.0,58.0,-100.00,NNW,337,3.0,-999.0,55,-99.99,,,-99.99,540.559998,,2013-08-09 15:44:00,
2013-08-09 11:53:00,75.0,58.0,-100.00,NNW,337,3.0,-999.0,55,-99.99,,,-99.99,540.559998,,2013-08-09 15:53:00,
2013-08-09 12:00:00,76.0,56.0,-100.00,NNW,337,3.0,-999.0,50,-99.99,,,-99.99,676.280029,,2013-08-09 16:00:00,
2013-08-09 12:43:00,76.0,56.0,-100.00,NNW,337,3.0,-999.0,50,-99.99,,,-99.99,676.280029,,2013-08-09 16:43:00,
2013-08-09 12:53:00,76.0,56.0,-100.00,NNW,337,3.0,-999.0,50,-99.99,,,-99.99,676.280029,,2013-08-09 16:53:00,
2013-08-09 13:00:00,76.0,56.0,-100.00,NNW,337,6.0,-999.0,50,-99.99,,,-99.99,735.440002,,2013-08-09 17:00:00,
2013-08-09 13:43:00,76.0,56.0,-100.00,NNW,337,6.0,-999.0,50,-99.99,,,-99.99,735.440002,,2013-08-09 17:43:00,
2013-08-09 13:52:00,76.0,56.0,-100.00,NNW,337,6.0,-999.0,50,-99.99,,,-99.99,735.440002,,2013-08-09 17:52:00,
2013-08-09 14:00:00,77.0,56.0,-100.00,NNW,337,5.0,-999.0,49,-99.99,,,-99.99,778.359985,,2013-08-09 18:00:00,
2013-08-09 14:43:00,77.0,56.0,-100.00,NNW,337,5.0,-999.0,49,-99.99,,,-99.99,778.359985,,2013-08-09 18:43:00,
2013-08-09 14:53:00,77.0,56.0,-100.00,NNW,337,5.0,-999.0,49,-99.99,,,-99.99,778.359985,,2013-08-09 18:53:00,
2013-08-09 15:00:00,78.0,56.0,-100.00,NW,315,4.0,-999.0,47,-99.99,,,-99.99,769.080017,,2013-08-09 19:00:00,
2013-08-09 15:43:00,78.0,56.0,-100.00,NW,315,4.0,-999.0,47,-99.99,,,-99.99,769.080017,,2013-08-09 19:43:00,
2013-08-09 15:52:00,78.0,56.0,-100.00,NW,315,4.0,-999.0,47,-99.99,,,-99.99,769.080017,,2013-08-09 19:52:00,
2013-08-09 16:00:00,79.0,58.0,-100.00,NW,315,5.0,-999.0,50,-99.99,,,-99.99,641.479980,,2013-08-09 20:00:00,
2013-08-09 16:43:00,79.0,58.0,-100.00,NW,315,5.0,-999.0,50,-99.99,,,-99.99,641.479980,,2013-08-09 20:43:00,
2013-08-09 16:52:00,79.0,58.0,-100.00,NW,315,5.0,-999.0,50,-99.99,,,-99.99,641.479980,,2013-08-09 20:52:00,
2013-08-09 17:00:00,78.0,59.0,-100.00,WNW,292,4.0,-999.0,53,-99.99,,,-99.99,461.679993,,2013-08-09 21:00:00,
2013-08-09 17:43:00,78.0,59.0,-100.00,WNW,292,4.0,-999.0,53,-99.99,,,-99.99,461.679993,,2013-08-09 21:43:00,
2013-08-09 17:52:00,78.0,59.0,-100.00,WNW,292,4.0,-999.0,53,-99.99,,,-99.99,461.679993,,2013-08-09 21:52:00,
2013-08-09 18:00:00,78.0,59.0,-100.00,NW,315,3.0,-999.0,51,-99.99,,,-99.99,410.640015,,2013-08-09 22:00:00,
2013-08-09 18:43:00,78.0,59.0,-100.00,NW,315,3.0,-999.0,51,-99.99,,,-99.99,410.640015,,2013-08-09 22:43:00,
2013-08-09 18:52:00,78.0,59.0,-100.00,NW,315,3.0,-999.0,51,-99.99,,,-99.99,410.640015,,2013-08-09 22:52:00,
2013-08-09 19:00:00,78.0,60.0,-100.00,NW,315,1.0,-999.0,53,-99.99,,,-99.99,219.240005,,2013-08-09 23:00:00,
2013-08-09 19:43:00,78.0,60.0,-100.00,NW,315,1.0,-999.0,53,-99.99,,,-99.99,219.240005,,2013-08-09 23:43:00,
2013-08-09 19:52:00,78.0,60.0,-100.00,NW,315,1.0,-999.0,53,-99.99,,,-99.99,219.240005,,2013-08-09 23:52:00,
2013-08-09 20:00:00,76.0,61.0,-100.00,WSW,247,1.0,-999.0,59,-99.99,,,-99.99,95.120003,,2013-08-10 00:00:00,
2013-08-09 20:43:00,76.0,61.0,-100.00,WSW,247,1.0,-999.0,59,-99.99,,,-99.99,95.120003,,2013-08-10 00:43:00,
2013-08-09 20:53:00,76.0,61.0,-100.00,WSW,247,1.0,-999.0,59,-99.99,,,-99.99,95.120003,,2013-08-10 00:53:00,
2013-08-09 21:00:00,74.0,63.0,-100.00,SW,225,0.0,-999.0,68,-99.99,,,-99.99,9.280000,,2013-08-10 01:00:00,
2013-08-09 21:32:00,74.0,63.0,-100.00,SW,225,0.0,-999.0,68,-99.99,,,-99.99,9.280000,,2013-08-10 01:32:00,
2013-08-09 21:43:00,74.0,63.0,-100.00,SW,225,0.0,-999.0,68,-99.99,,,-99.99,9.280000,,2013-08-10 01:43:00,
2013-08-09 21:52:00,74.0,63.0,-100.00,SW,225,0.0,-999.0,68,-99.99,,,-99.99,9.280000,,2013-08-10 01:52:00,
2013-08-09 22:00:00,71.0,63.0,-100.00,SSW,202,0.0,-999.0,76,-99.99,,,-99.99,0.000000,,2013-08-10 02:00:00,
2013-08-09 22:32:00,71.0,63.0,-100.00,SSW,202,0.0,-999.0,76,-99.99,,,-99.99,0.000000,,2013-08-10 02:32:00,
2013-08-09 22:42:00,71.0,63.0,-100.00,SSW,202,0.0,-999.0,76,-99.99,,,-99.99,0.000000,,2013-08-10 02:42:00,
2013-08-09 22:52:00,71.0,63.0,-100.00,SSW,202,0.0,-999.0,76,-99.99,,,-99.99,0.000000,,2013-08-10 02:52:00,
2013-08-09 23:00:00,69.0,63.0,-100.00,East,90,0.0,-999.0,83,-99.99,,,-99.99,0.000000,,2013-08-10 03:00:00,
2013-08-09 23:32:00,69.0,63.0,-100.00,East,90,0.0,-999.0,83,-99.99,,,-99.99,0.000000,,2013-08-10 03:32:00,
2013-08-09 23:42:00,69.0,63.0,-100.00,East,90,0.0,-999.0,83,-99.99,,,-99.99,0.000000,,2013-08-10 03:42:00,
2013-08-09 23:52:00,69.0,63.0,-100.00,East,90,0.0,-999.0,83,-99.99,,,-99.99,0.000000,,2013-08-10 03:52:00,